sensor_id;sensor_type;location;lat;lon;timestamp;pressure;altitude;pressure_sealevel;temperature;humidity
26699;BME280;14313;50.892;13.756;2022-07-21T00:00:35;97755.50;;;28.63;41.49
26699;BME280;14313;50.892;13.756;2022-07-21T00:03:01;97760.94;;;28.63;41.41
26699;BME280;14313;50.892;13.756;2022-07-21T00:05:27;97762.00;;;28.52;41.63
26699;BME280;14313;50.892;13.756;2022-07-21T00:07:53;97768.78;;;28.54;42.20
26699;BME280;14313;50.892;13.756;2022-07-21T00:10:20;97767.09;;;28.38;43.11
26699;BME280;14313;50.892;13.756;2022-07-21T00:12:46;97761.69;;;28.43;43.15
26699;BME280;14313;50.892;13.756;2022-07-21T00:15:14;97760.31;;;28.35;43.25
26699;BME280;14313;50.892;13.756;2022-07-21T00:17:41;97758.38;;;28.26;43.65
26699;BME280;14313;50.892;13.756;2022-07-21T00:20:08;97754.00;;;28.15;42.35
26699;BME280;14313;50.892;13.756;2022-07-21T00:22:34;97758.41;;;28.31;42.28
26699;BME280;14313;50.892;13.756;2022-07-21T00:24:59;97760.41;;;28.61;39.21
26699;BME280;14313;50.892;13.756;2022-07-21T00:27:25;97749.41;;;29.03;37.76
26699;BME280;14313;50.892;13.756;2022-07-21T00:29:51;97737.19;;;29.41;36.99
26699;BME280;14313;50.892;13.756;2022-07-21T00:32:17;97727.09;;;29.92;36.03
26699;BME280;14313;50.892;13.756;2022-07-21T00:34:42;97729.50;;;30.08;35.76
26699;BME280;14313;50.892;13.756;2022-07-21T00:37:09;97718.78;;;30.32;34.93
26699;BME280;14313;50.892;13.756;2022-07-21T00:39:35;97715.72;;;30.44;34.42
26699;BME280;14313;50.892;13.756;2022-07-21T00:42:00;97705.25;;;30.76;33.89
26699;BME280;14313;50.892;13.756;2022-07-21T00:44:27;97706.59;;;30.74;33.52
26699;BME280;14313;50.892;13.756;2022-07-21T00:46:52;97708.84;;;31.40;33.16
26699;BME280;14313;50.892;13.756;2022-07-21T00:49:18;97713.88;;;31.27;32.95
26699;BME280;14313;50.892;13.756;2022-07-21T00:51:45;97718.69;;;31.36;33.00
26699;BME280;14313;50.892;13.756;2022-07-21T00:54:10;97723.44;;;31.54;32.15
26699;BME280;14313;50.892;13.756;2022-07-21T00:56:36;97715.69;;;31.66;31.72
26699;BME280;14313;50.892;13.756;2022-07-21T00:59:01;97720.56;;;31.40;32.25
26699;BME280;14313;50.892;13.756;2022-07-21T01:01:26;97722.34;;;31.60;31.60
26699;BME280;14313;50.892;13.756;2022-07-21T01:03:52;97722.22;;;31.94;31.42
26699;BME280;14313;50.892;13.756;2022-07-21T01:06:17;97721.50;;;31.59;31.21
26699;BME280;14313;50.892;13.756;2022-07-21T01:08:42;97716.84;;;31.89;30.93
26699;BME280;14313;50.892;13.756;2022-07-21T01:11:08;97709.59;;;31.79;31.37
26699;BME280;14313;50.892;13.756;2022-07-21T01:13:33;97720.59;;;31.93;31.31
26699;BME280;14313;50.892;13.756;2022-07-21T01:15:59;97716.44;;;32.00;30.79
26699;BME280;14313;50.892;13.756;2022-07-21T01:18:24;97728.88;;;32.11;30.44
26699;BME280;14313;50.892;13.756;2022-07-21T01:20:54;97742.44;;;32.40;30.43
26699;BME280;14313;50.892;13.756;2022-07-21T01:23:21;97781.25;;;32.08;30.41
26699;BME280;14313;50.892;13.756;2022-07-21T01:25:48;97808.16;;;31.91;30.85
26699;BME280;14313;50.892;13.756;2022-07-21T01:28:13;97816.50;;;31.76;31.69
26699;BME280;14313;50.892;13.756;2022-07-21T01:30:39;97815.63;;;32.09;31.28
26699;BME280;14313;50.892;13.756;2022-07-21T01:33:04;97823.03;;;31.80;31.92
26699;BME280;14313;50.892;13.756;2022-07-21T01:35:29;97832.94;;;31.66;32.61
26699;BME280;14313;50.892;13.756;2022-07-21T01:37:54;97828.66;;;31.16;33.13
26699;BME280;14313;50.892;13.756;2022-07-21T01:40:20;97834.94;;;30.57;33.67
26699;BME280;14313;50.892;13.756;2022-07-21T01:43:05;97835.56;;;30.98;33.15
26699;BME280;14313;50.892;13.756;2022-07-21T01:45:30;97827.91;;;31.05;32.97
26699;BME280;14313;50.892;13.756;2022-07-21T01:47:56;97830.97;;;31.38;32.23
26699;BME280;14313;50.892;13.756;2022-07-21T01:50:22;97823.84;;;30.98;32.44
26699;BME280;14313;50.892;13.756;2022-07-21T01:52:52;97820.50;;;31.11;32.66
26699;BME280;14313;50.892;13.756;2022-07-21T01:55:18;97825.09;;;31.15;32.63
26699;BME280;14313;50.892;13.756;2022-07-21T01:57:44;97835.34;;;31.33;32.49
26699;BME280;14313;50.892;13.756;2022-07-21T02:00:09;97839.75;;;31.24;32.51
26699;BME280;14313;50.892;13.756;2022-07-21T02:02:35;97843.72;;;31.03;32.99
26699;BME280;14313;50.892;13.756;2022-07-21T02:05:01;97850.50;;;31.06;32.67
26699;BME280;14313;50.892;13.756;2022-07-21T02:07:26;97853.81;;;31.03;32.73
26699;BME280;14313;50.892;13.756;2022-07-21T02:09:51;97853.38;;;31.24;32.81
26699;BME280;14313;50.892;13.756;2022-07-21T02:12:17;97852.41;;;31.05;33.26
26699;BME280;14313;50.892;13.756;2022-07-21T02:14:42;97851.69;;;30.79;33.49
26699;BME280;14313;50.892;13.756;2022-07-21T02:17:07;97860.75;;;30.65;34.01
26699;BME280;14313;50.892;13.756;2022-07-21T02:19:33;97857.00;;;30.30;34.44
26699;BME280;14313;50.892;13.756;2022-07-21T02:21:58;97853.72;;;30.33;34.53
26699;BME280;14313;50.892;13.756;2022-07-21T02:24:23;97855.69;;;30.07;35.10
26699;BME280;14313;50.892;13.756;2022-07-21T02:26:49;97860.59;;;30.00;35.25
26699;BME280;14313;50.892;13.756;2022-07-21T02:29:14;97866.31;;;29.94;35.66
26699;BME280;14313;50.892;13.756;2022-07-21T02:31:39;97872.00;;;29.97;35.57
26699;BME280;14313;50.892;13.756;2022-07-21T02:34:05;97872.00;;;29.67;35.89
26699;BME280;14313;50.892;13.756;2022-07-21T02:36:32;97877.69;;;29.55;36.46
26699;BME280;14313;50.892;13.756;2022-07-21T02:38:57;97871.88;;;29.11;36.94
26699;BME280;14313;50.892;13.756;2022-07-21T02:41:22;97876.03;;;29.34;37.06
26699;BME280;14313;50.892;13.756;2022-07-21T02:43:47;97880.88;;;29.27;37.73
26699;BME280;14313;50.892;13.756;2022-07-21T02:46:13;97885.56;;;29.47;37.56
26699;BME280;14313;50.892;13.756;2022-07-21T02:48:38;97879.59;;;29.60;37.98
26699;BME280;14313;50.892;13.756;2022-07-21T02:51:03;97890.72;;;29.33;39.47
26699;BME280;14313;50.892;13.756;2022-07-21T02:53:29;97885.56;;;29.47;39.49
26699;BME280;14313;50.892;13.756;2022-07-21T02:55:54;97888.00;;;29.38;40.71
26699;BME280;14313;50.892;13.756;2022-07-21T02:58:27;97897.69;;;29.19;42.23
26699;BME280;14313;50.892;13.756;2022-07-21T03:00:58;97899.34;;;29.25;42.69
26699;BME280;14313;50.892;13.756;2022-07-21T03:03:26;97906.59;;;29.04;43.28
26699;BME280;14313;50.892;13.756;2022-07-21T03:05:52;97907.56;;;28.73;44.95
26699;BME280;14313;50.892;13.756;2022-07-21T03:08:18;97895.75;;;29.09;44.41
26699;BME280;14313;50.892;13.756;2022-07-21T03:10:44;97900.44;;;29.24;43.84
26699;BME280;14313;50.892;13.756;2022-07-21T03:13:09;97902.41;;;29.44;43.61
26699;BME280;14313;50.892;13.756;2022-07-21T03:15:35;97896.91;;;29.18;45.01
26699;BME280;14313;50.892;13.756;2022-07-21T03:18:01;97892.56;;;29.28;44.75
26699;BME280;14313;50.892;13.756;2022-07-21T03:20:28;97898.81;;;29.23;45.46
26699;BME280;14313;50.892;13.756;2022-07-21T03:22:54;97904.38;;;28.86;46.74
26699;BME280;14313;50.892;13.756;2022-07-21T03:25:20;97912.53;;;28.91;46.61
26699;BME280;14313;50.892;13.756;2022-07-21T03:27:47;97920.81;;;29.27;45.61
26699;BME280;14313;50.892;13.756;2022-07-21T03:30:13;97921.56;;;29.07;44.80
26699;BME280;14313;50.892;13.756;2022-07-21T03:32:38;97931.88;;;29.10;44.71
26699;BME280;14313;50.892;13.756;2022-07-21T03:35:05;97937.78;;;28.92;45.08
26699;BME280;14313;50.892;13.756;2022-07-21T03:37:31;97938.16;;;29.15;44.63
26699;BME280;14313;50.892;13.756;2022-07-21T03:39:56;97938.38;;;29.04;45.16
26699;BME280;14313;50.892;13.756;2022-07-21T03:42:21;97940.56;;;29.02;45.44
26699;BME280;14313;50.892;13.756;2022-07-21T03:44:47;97944.63;;;29.09;45.61
26699;BME280;14313;50.892;13.756;2022-07-21T03:47:12;97940.56;;;29.02;46.49
26699;BME280;14313;50.892;13.756;2022-07-21T03:49:37;97930.75;;;28.96;46.63
26699;BME280;14313;50.892;13.756;2022-07-21T03:52:03;97924.19;;;28.87;46.69
26699;BME280;14313;50.892;13.756;2022-07-21T03:54:28;97945.91;;;28.81;46.92
26699;BME280;14313;50.892;13.756;2022-07-21T03:56:54;97945.41;;;28.53;47.53
26699;BME280;14313;50.892;13.756;2022-07-21T03:59:19;97942.44;;;28.54;47.86
26699;BME280;14313;50.892;13.756;2022-07-21T04:01:44;97951.69;;;28.58;47.56
26699;BME280;14313;50.892;13.756;2022-07-21T04:04:10;97945.50;;;28.68;47.82
26699;BME280;14313;50.892;13.756;2022-07-21T04:06:35;97953.22;;;28.44;48.48
26699;BME280;14313;50.892;13.756;2022-07-21T04:09:00;97956.59;;;28.19;49.08
26699;BME280;14313;50.892;13.756;2022-07-21T04:11:26;97952.88;;;28.30;49.04
26699;BME280;14313;50.892;13.756;2022-07-21T04:13:51;97954.75;;;28.30;49.39
26699;BME280;14313;50.892;13.756;2022-07-21T04:16:16;97950.19;;;28.35;49.31
26699;BME280;14313;50.892;13.756;2022-07-21T04:18:42;97960.78;;;28.05;49.82
26699;BME280;14313;50.892;13.756;2022-07-21T04:21:07;97964.16;;;28.17;49.56
26699;BME280;14313;50.892;13.756;2022-07-21T04:23:32;97962.03;;;28.24;49.76
26699;BME280;14313;50.892;13.756;2022-07-21T04:25:58;97958.72;;;28.17;49.84
26699;BME280;14313;50.892;13.756;2022-07-21T04:28:23;97956.00;;;28.17;50.05
26699;BME280;14313;50.892;13.756;2022-07-21T04:30:49;97956.59;;;27.92;50.50
26699;BME280;14313;50.892;13.756;2022-07-21T04:33:14;97961.91;;;27.82;50.69
26699;BME280;14313;50.892;13.756;2022-07-21T04:35:40;97959.00;;;27.89;50.61
26699;BME280;14313;50.892;13.756;2022-07-21T04:38:05;97954.25;;;28.06;50.35
26699;BME280;14313;50.892;13.756;2022-07-21T04:40:30;97959.50;;;28.13;49.87
26699;BME280;14313;50.892;13.756;2022-07-21T04:42:56;97960.66;;;28.22;50.01
26699;BME280;14313;50.892;13.756;2022-07-21T04:45:21;97958.25;;;28.25;49.81
26699;BME280;14313;50.892;13.756;2022-07-21T04:47:55;97963.25;;;28.44;49.52
26699;BME280;14313;50.892;13.756;2022-07-21T04:50:23;97957.28;;;28.83;48.42
26699;BME280;14313;50.892;13.756;2022-07-21T04:52:49;97966.91;;;28.59;49.07
26699;BME280;14313;50.892;13.756;2022-07-21T04:55:15;97961.28;;;28.71;48.70
26699;BME280;14313;50.892;13.756;2022-07-21T04:57:43;97962.56;;;29.05;47.84
26699;BME280;14313;50.892;13.756;2022-07-21T05:00:11;97962.47;;;28.90;47.83
26699;BME280;14313;50.892;13.756;2022-07-21T05:02:38;97953.09;;;29.13;47.30
26699;BME280;14313;50.892;13.756;2022-07-21T05:05:04;97950.03;;;28.99;47.19
26699;BME280;14313;50.892;13.756;2022-07-21T05:07:30;97949.00;;;29.15;47.23
26699;BME280;14313;50.892;13.756;2022-07-21T05:09:55;97958.56;;;29.28;47.07
26699;BME280;14313;50.892;13.756;2022-07-21T05:12:22;97963.31;;;28.96;46.79
26699;BME280;14313;50.892;13.756;2022-07-21T05:14:47;97956.69;;;29.29;46.71
26699;BME280;14313;50.892;13.756;2022-07-21T05:17:13;97957.88;;;29.63;45.80
26699;BME280;14313;50.892;13.756;2022-07-21T05:19:38;97952.47;;;29.73;45.24
26699;BME280;14313;50.892;13.756;2022-07-21T05:22:03;97964.41;;;29.67;45.25
26699;BME280;14313;50.892;13.756;2022-07-21T05:24:28;97969.84;;;29.72;45.16
26699;BME280;14313;50.892;13.756;2022-07-21T05:26:54;97973.63;;;29.61;44.83
26699;BME280;14313;50.892;13.756;2022-07-21T05:29:19;97974.19;;;29.58;45.07
26699;BME280;14313;50.892;13.756;2022-07-21T05:31:45;97967.13;;;29.67;44.57
26699;BME280;14313;50.892;13.756;2022-07-21T05:34:10;97972.56;;;29.72;44.54
26699;BME280;14313;50.892;13.756;2022-07-21T05:36:35;97962.31;;;30.15;43.46
26699;BME280;14313;50.892;13.756;2022-07-21T05:39:00;97971.28;;;30.05;43.52
26699;BME280;14313;50.892;13.756;2022-07-21T05:41:26;97977.53;;;30.05;42.82
26699;BME280;14313;50.892;13.756;2022-07-21T05:43:51;97972.38;;;29.99;43.35
26699;BME280;14313;50.892;13.756;2022-07-21T05:46:17;97970.72;;;30.18;43.06
26699;BME280;14313;50.892;13.756;2022-07-21T05:48:42;97974.53;;;30.22;42.96
26699;BME280;14313;50.892;13.756;2022-07-21T05:51:07;97973.19;;;30.25;42.40
26699;BME280;14313;50.892;13.756;2022-07-21T05:53:32;97975.91;;;30.20;42.79
26699;BME280;14313;50.892;13.756;2022-07-21T05:55:58;97970.47;;;30.25;42.64
26699;BME280;14313;50.892;13.756;2022-07-21T05:58:23;97969.38;;;30.16;43.08
26699;BME280;14313;50.892;13.756;2022-07-21T06:00:50;97969.91;;;30.28;42.69
26699;BME280;14313;50.892;13.756;2022-07-21T06:03:34;97963.38;;;30.29;43.33
26699;BME280;14313;50.892;13.756;2022-07-21T06:06:00;97967.91;;;30.94;42.29
26699;BME280;14313;50.892;13.756;2022-07-21T06:08:25;97963.34;;;30.74;42.29
26699;BME280;14313;50.892;13.756;2022-07-21T06:10:51;97965.97;;;31.10;41.84
26699;BME280;14313;50.892;13.756;2022-07-21T06:13:16;97973.56;;;31.23;41.50
26699;BME280;14313;50.892;13.756;2022-07-21T06:15:41;97979.09;;;31.03;41.49
26699;BME280;14313;50.892;13.756;2022-07-21T06:18:07;97982.69;;;31.57;40.75
26699;BME280;14313;50.892;13.756;2022-07-21T06:20:32;97981.63;;;31.92;40.14
26699;BME280;14313;50.892;13.756;2022-07-21T06:22:58;97985.66;;;31.56;40.66
26699;BME280;14313;50.892;13.756;2022-07-21T06:25:23;97988.88;;;31.73;40.75
26699;BME280;14313;50.892;13.756;2022-07-21T06:27:48;97982.91;;;31.66;40.19
26699;BME280;14313;50.892;13.756;2022-07-21T06:30:14;97984.72;;;31.86;40.48
26699;BME280;14313;50.892;13.756;2022-07-21T06:32:39;97982.59;;;31.72;40.13
26699;BME280;14313;50.892;13.756;2022-07-21T06:35:05;97981.78;;;32.16;39.23
26699;BME280;14313;50.892;13.756;2022-07-21T06:37:31;97982.19;;;32.62;38.86
26699;BME280;14313;50.892;13.756;2022-07-21T06:39:56;97980.19;;;32.05;39.22
26699;BME280;14313;50.892;13.756;2022-07-21T06:42:21;97984.59;;;32.01;39.12
26699;BME280;14313;50.892;13.756;2022-07-21T06:44:47;97986.44;;;32.10;39.15
26699;BME280;14313;50.892;13.756;2022-07-21T06:47:12;97989.34;;;32.53;38.23
26699;BME280;14313;50.892;13.756;2022-07-21T06:49:37;97994.72;;;32.63;38.46
26699;BME280;14313;50.892;13.756;2022-07-21T06:52:03;97990.81;;;32.74;37.59
26699;BME280;14313;50.892;13.756;2022-07-21T06:54:28;97994.72;;;33.16;37.22
26699;BME280;14313;50.892;13.756;2022-07-21T06:56:53;97992.84;;;32.58;38.55
26699;BME280;14313;50.892;13.756;2022-07-21T06:59:19;97983.84;;;33.11;38.16
26699;BME280;14313;50.892;13.756;2022-07-21T07:01:44;97983.97;;;33.48;37.86
26699;BME280;14313;50.892;13.756;2022-07-21T07:04:10;97985.59;;;33.49;37.91
26699;BME280;14313;50.892;13.756;2022-07-21T07:06:35;97978.69;;;33.75;37.42
26699;BME280;14313;50.892;13.756;2022-07-21T07:09:00;97984.94;;;33.76;37.23
26699;BME280;14313;50.892;13.756;2022-07-21T07:11:25;97990.88;;;33.40;37.62
26699;BME280;14313;50.892;13.756;2022-07-21T07:13:51;97990.50;;;33.28;37.50
26699;BME280;14313;50.892;13.756;2022-07-21T07:16:16;97989.84;;;33.36;37.93
26699;BME280;14313;50.892;13.756;2022-07-21T07:18:41;97992.59;;;33.36;36.94
26699;BME280;14313;50.892;13.756;2022-07-21T07:21:07;97992.59;;;33.36;36.39
26699;BME280;14313;50.892;13.756;2022-07-21T07:23:32;97991.00;;;33.07;36.91
26699;BME280;14313;50.892;13.756;2022-07-21T07:25:58;97989.38;;;33.29;36.69
26699;BME280;14313;50.892;13.756;2022-07-21T07:28:23;97989.44;;;33.24;36.47
26699;BME280;14313;50.892;13.756;2022-07-21T07:30:48;97993.97;;;32.86;37.32
26699;BME280;14313;50.892;13.756;2022-07-21T07:33:14;98004.19;;;32.99;36.96
26699;BME280;14313;50.892;13.756;2022-07-21T07:35:39;98004.09;;;32.86;37.17
26699;BME280;14313;50.892;13.756;2022-07-21T07:38:05;98003.19;;;32.67;37.58
26699;BME280;14313;50.892;13.756;2022-07-21T07:40:30;98001.72;;;32.45;37.66
26699;BME280;14313;50.892;13.756;2022-07-21T07:42:55;98010.34;;;32.24;37.91
26699;BME280;14313;50.892;13.756;2022-07-21T07:45:21;98004.28;;;31.93;38.69
26699;BME280;14313;50.892;13.756;2022-07-21T07:47:47;98006.41;;;32.01;38.37
26699;BME280;14313;50.892;13.756;2022-07-21T07:50:13;98004.44;;;32.06;38.30
26699;BME280;14313;50.892;13.756;2022-07-21T07:52:41;98009.63;;;32.08;39.02
26699;BME280;14313;50.892;13.756;2022-07-21T07:55:07;98010.63;;;32.22;38.76
26699;BME280;14313;50.892;13.756;2022-07-21T07:57:36;98011.72;;;31.82;38.99
26699;BME280;14313;50.892;13.756;2022-07-21T08:00:05;98008.53;;;32.14;38.47
26699;BME280;14313;50.892;13.756;2022-07-21T08:02:37;98008.72;;;31.84;38.67
26699;BME280;14313;50.892;13.756;2022-07-21T08:05:04;98006.97;;;31.98;39.14
26699;BME280;14313;50.892;13.756;2022-07-21T08:07:29;98000.72;;;32.36;38.46
26699;BME280;14313;50.892;13.756;2022-07-21T08:09:55;97996.22;;;32.79;38.04
26699;BME280;14313;50.892;13.756;2022-07-21T08:12:20;98008.00;;;33.04;38.25
26699;BME280;14313;50.892;13.756;2022-07-21T08:14:45;98003.19;;;33.19;37.73
26699;BME280;14313;50.892;13.756;2022-07-21T08:17:11;98000.63;;;33.28;38.00
26699;BME280;14313;50.892;13.756;2022-07-21T08:19:36;98007.16;;;33.74;36.94
26699;BME280;14313;50.892;13.756;2022-07-21T08:22:01;98005.63;;;33.45;37.10
26699;BME280;14313;50.892;13.756;2022-07-21T08:24:27;98015.69;;;33.25;37.58
26699;BME280;14313;50.892;13.756;2022-07-21T08:26:52;98015.06;;;33.33;37.40
26699;BME280;14313;50.892;13.756;2022-07-21T08:29:18;98002.25;;;33.71;36.83
26699;BME280;14313;50.892;13.756;2022-07-21T08:31:43;98016.09;;;33.99;36.66
26699;BME280;14313;50.892;13.756;2022-07-21T08:34:09;98013.69;;;33.07;37.70
26699;BME280;14313;50.892;13.756;2022-07-21T08:36:34;98008.91;;;33.23;37.75
26699;BME280;14313;50.892;13.756;2022-07-21T08:38:59;98004.41;;;33.74;37.73
26699;BME280;14313;50.892;13.756;2022-07-21T08:41:25;98005.69;;;33.58;37.08
26699;BME280;14313;50.892;13.756;2022-07-21T08:43:50;98007.19;;;34.07;37.18
26699;BME280;14313;50.892;13.756;2022-07-21T08:46:16;98006.28;;;34.95;35.67
26699;BME280;14313;50.892;13.756;2022-07-21T08:48:43;98020.06;;;34.76;35.70
26699;BME280;14313;50.892;13.756;2022-07-21T08:51:08;98015.78;;;34.38;36.30
26699;BME280;14313;50.892;13.756;2022-07-21T08:53:34;98013.66;;;34.16;36.23
26699;BME280;14313;50.892;13.756;2022-07-21T08:55:59;98021.72;;;34.26;36.35
26699;BME280;14313;50.892;13.756;2022-07-21T08:58:24;98011.94;;;34.39;36.04
26699;BME280;14313;50.892;13.756;2022-07-21T09:00:50;98012.38;;;35.05;34.91
26699;BME280;14313;50.892;13.756;2022-07-21T09:03:19;98016.97;;;35.10;35.05
26699;BME280;14313;50.892;13.756;2022-07-21T09:06:09;98013.53;;;35.59;34.45
26699;BME280;14313;50.892;13.756;2022-07-21T09:08:41;98015.16;;;35.46;34.99
26699;BME280;14313;50.892;13.756;2022-07-21T09:13:36;98025.66;;;34.71;36.03
26699;BME280;14313;50.892;13.756;2022-07-21T09:16:02;98017.25;;;34.81;35.82
26699;BME280;14313;50.892;13.756;2022-07-21T09:18:27;98027.91;;;34.13;36.86
26699;BME280;14313;50.892;13.756;2022-07-21T09:20:53;98010.13;;;34.80;36.52
26699;BME280;14313;50.892;13.756;2022-07-21T09:23:22;98017.97;;;34.54;37.59
26699;BME280;14313;50.892;13.756;2022-07-21T09:25:53;98017.72;;;35.29;36.30
26699;BME280;14313;50.892;13.756;2022-07-21T09:28:24;98023.91;;;35.21;36.92
26699;BME280;14313;50.892;13.756;2022-07-21T09:31:03;98018.69;;;34.92;37.18
26699;BME280;14313;50.892;13.756;2022-07-21T09:33:40;98022.75;;;35.08;37.14
26699;BME280;14313;50.892;13.756;2022-07-21T09:36:07;98022.25;;;35.47;36.42
26699;BME280;14313;50.892;13.756;2022-07-21T09:38:41;98020.91;;;35.04;37.22
26699;BME280;14313;50.892;13.756;2022-07-21T09:41:27;98024.06;;;34.33;38.38
26699;BME280;14313;50.892;13.756;2022-07-21T09:43:56;98018.88;;;34.12;38.90
26699;BME280;14313;50.892;13.756;2022-07-21T09:46:24;98015.44;;;34.26;38.50
26699;BME280;14313;50.892;13.756;2022-07-21T09:48:52;98026.97;;;33.61;39.22
26699;BME280;14313;50.892;13.756;2022-07-21T09:54:04;98023.31;;;33.71;39.69
26699;BME280;14313;50.892;13.756;2022-07-21T09:56:33;98015.59;;;34.48;39.23
26699;BME280;14313;50.892;13.756;2022-07-21T09:59:00;98031.94;;;35.18;37.63
26699;BME280;14313;50.892;13.756;2022-07-21T10:01:28;98019.19;;;35.76;36.15
26699;BME280;14313;50.892;13.756;2022-07-21T10:03:54;98024.31;;;35.28;36.14
26699;BME280;14313;50.892;13.756;2022-07-21T10:06:24;98002.72;;;35.76;34.95
26699;BME280;14313;50.892;13.756;2022-07-21T10:08:50;98021.34;;;36.02;34.95
26699;BME280;14313;50.892;13.756;2022-07-21T10:11:16;98019.06;;;37.15;33.19
26699;BME280;14313;50.892;13.756;2022-07-21T10:13:41;98016.69;;;36.91;32.87
26699;BME280;14313;50.892;13.756;2022-07-21T10:16:09;98015.59;;;36.48;33.04
26699;BME280;14313;50.892;13.756;2022-07-21T10:18:39;98016.16;;;36.14;34.17
26699;BME280;14313;50.892;13.756;2022-07-21T10:23:56;98006.63;;;35.75;34.70
26699;BME280;14313;50.892;13.756;2022-07-21T10:26:22;98019.22;;;35.22;35.08
26699;BME280;14313;50.892;13.756;2022-07-21T10:28:48;98017.72;;;35.92;34.57
26699;BME280;14313;50.892;13.756;2022-07-21T10:31:23;98009.25;;;34.52;36.76
26699;BME280;14313;50.892;13.756;2022-07-21T10:41:46;98016.31;;;33.41;37.96
26699;BME280;14313;50.892;13.756;2022-07-21T10:49:45;98033.63;;;32.50;40.11
26699;BME280;14313;50.892;13.756;2022-07-21T10:58:09;98018.78;;;32.61;39.94
26699;BME280;14313;50.892;13.756;2022-07-21T11:00:35;98019.00;;;32.93;39.73
26699;BME280;14313;50.892;13.756;2022-07-21T11:03:14;98030.41;;;32.77;39.27
26699;BME280;14313;50.892;13.756;2022-07-21T11:08:39;98034.09;;;32.91;39.48
26699;BME280;14313;50.892;13.756;2022-07-21T11:11:14;98034.25;;;33.28;38.49
26699;BME280;14313;50.892;13.756;2022-07-21T11:14:09;98046.28;;;34.31;37.15
26699;BME280;14313;50.892;13.756;2022-07-21T11:19:29;98036.84;;;34.88;36.19
26699;BME280;14313;50.892;13.756;2022-07-21T11:21:56;98040.44;;;34.00;37.11
26699;BME280;14313;50.892;13.756;2022-07-21T11:24:22;98022.91;;;34.20;37.77
26699;BME280;14313;50.892;13.756;2022-07-21T11:27:24;98022.63;;;35.00;36.16
26699;BME280;14313;50.892;13.756;2022-07-21T11:29:50;98017.97;;;35.14;35.90
26699;BME280;14313;50.892;13.756;2022-07-21T11:32:17;98009.34;;;34.61;37.13
26699;BME280;14313;50.892;13.756;2022-07-21T11:34:51;98012.28;;;33.57;39.12
26699;BME280;14313;50.892;13.756;2022-07-21T11:37:27;98022.31;;;33.43;39.27
26699;BME280;14313;50.892;13.756;2022-07-21T11:39:52;98032.34;;;33.71;39.31
26699;BME280;14313;50.892;13.756;2022-07-21T11:42:18;98031.13;;;34.20;38.98
26699;BME280;14313;50.892;13.756;2022-07-21T11:44:43;98038.81;;;34.37;38.42
26699;BME280;14313;50.892;13.756;2022-07-21T11:47:11;98040.72;;;33.56;39.99
26699;BME280;14313;50.892;13.756;2022-07-21T11:49:38;98036.63;;;34.85;39.39
26699;BME280;14313;50.892;13.756;2022-07-21T11:52:05;98046.97;;;34.55;39.53
26699;BME280;14313;50.892;13.756;2022-07-21T11:54:35;98059.06;;;33.32;41.72
26699;BME280;14313;50.892;13.756;2022-07-21T11:57:03;98066.66;;;32.48;43.92
26699;BME280;14313;50.892;13.756;2022-07-21T11:59:29;98059.88;;;33.56;42.05
26699;BME280;14313;50.892;13.756;2022-07-21T12:02:07;98049.97;;;33.13;42.60
26699;BME280;14313;50.892;13.756;2022-07-21T12:04:46;98056.22;;;32.89;43.40
26699;BME280;14313;50.892;13.756;2022-07-21T12:07:18;98065.75;;;32.24;44.99
26699;BME280;14313;50.892;13.756;2022-07-21T12:09:48;98067.53;;;32.00;45.76
26699;BME280;14313;50.892;13.756;2022-07-21T12:12:14;98052.81;;;32.01;45.92
26699;BME280;14313;50.892;13.756;2022-07-21T12:14:48;98053.75;;;30.81;47.75
26699;BME280;14313;50.892;13.756;2022-07-21T12:17:16;98065.16;;;30.63;48.05
26699;BME280;14313;50.892;13.756;2022-07-21T12:19:42;98067.59;;;30.24;48.99
26699;BME280;14313;50.892;13.756;2022-07-21T12:22:08;98080.63;;;30.12;50.32
26699;BME280;14313;50.892;13.756;2022-07-21T12:24:54;98081.59;;;29.76;50.57
26699;BME280;14313;50.892;13.756;2022-07-21T12:27:20;98078.09;;;29.80;50.73
26699;BME280;14313;50.892;13.756;2022-07-21T12:29:46;98076.88;;;30.59;49.26
26699;BME280;14313;50.892;13.756;2022-07-21T12:32:12;98065.44;;;30.26;49.70
26699;BME280;14313;50.892;13.756;2022-07-21T12:34:51;98052.09;;;30.35;49.94
26699;BME280;14313;50.892;13.756;2022-07-21T12:37:17;98067.88;;;30.88;49.14
26699;BME280;14313;50.892;13.756;2022-07-21T12:39:42;98086.94;;;30.83;48.98
26699;BME280;14313;50.892;13.756;2022-07-21T12:42:33;98089.94;;;31.07;48.46
26699;BME280;14313;50.892;13.756;2022-07-21T12:45:13;98090.78;;;30.82;49.31
26699;BME280;14313;50.892;13.756;2022-07-21T12:47:38;98084.38;;;31.53;47.84
26699;BME280;14313;50.892;13.756;2022-07-21T12:50:06;98096.22;;;31.08;48.01
26699;BME280;14313;50.892;13.756;2022-07-21T12:52:32;98089.63;;;30.43;49.27
26699;BME280;14313;50.892;13.756;2022-07-21T12:54:59;98091.00;;;30.35;49.25
26699;BME280;14313;50.892;13.756;2022-07-21T12:57:29;98093.22;;;30.69;48.48
26699;BME280;14313;50.892;13.756;2022-07-21T12:59:56;98093.56;;;29.75;50.42
26699;BME280;14313;50.892;13.756;2022-07-21T13:02:22;98084.78;;;29.57;51.23
26699;BME280;14313;50.892;13.756;2022-07-21T13:04:48;98091.09;;;29.68;51.65
26699;BME280;14313;50.892;13.756;2022-07-21T13:07:14;98090.47;;;29.51;51.58
26699;BME280;14313;50.892;13.756;2022-07-21T13:09:40;98087.16;;;29.39;52.00
26699;BME280;14313;50.892;13.756;2022-07-21T13:12:05;98077.47;;;29.11;52.82
26699;BME280;14313;50.892;13.756;2022-07-21T13:14:31;98077.03;;;29.29;52.59
26699;BME280;14313;50.892;13.756;2022-07-21T13:16:56;98078.06;;;28.76;53.52
26699;BME280;14313;50.892;13.756;2022-07-21T13:19:23;98074.91;;;29.36;51.98
26699;BME280;14313;50.892;13.756;2022-07-21T13:21:49;98060.09;;;29.69;51.71